AAL3235 KCMH-KDFW
Flight info
| Callsign | AAL3235 |
|---|---|
| Flight time | N/A |
| Altitude | 30000 |
| Route | PKACZ TARRY EASEL PXV J131 LIT FEWWW SEEVR4 |
| Aircraft | B738/M-SDE2E3FGHIRWXY/LB1 |
Departure
| Time | 2026-05-09 00:25 |
|---|---|
| Airport | John Glenn Columbus International Airport (KCMH) |
Arrival
| Time | N/A |
|---|---|
| Airport | Dallas Fort Worth International Airport (KDFW) |
| Time | Latitude | Longitude | Altitude | Speed | Heading |
|---|---|---|---|---|---|
| 2026-05-08 23:11 | 39.99729 | -82.88270 | 824 ft | 0 kts | 28° |
| 2026-05-09 00:14 | 39.99728 | -82.88271 | 824 ft | 2 kts | 28° |
| 2026-05-09 00:14 | 39.99706 | -82.88287 | 822 ft | 4 kts | 28° |
| 2026-05-09 00:14 | 39.99682 | -82.88303 | 822 ft | 4 kts | 28° |
| 2026-05-09 00:15 | 39.99671 | -82.88311 | 820 ft | 0 kts | 27° |
| 2026-05-09 00:18 | 39.99673 | -82.88308 | 822 ft | 2 kts | 42° |
| 2026-05-09 00:18 | 39.99659 | -82.88293 | 817 ft | 7 kts | 184° |
| 2026-05-09 00:19 | 39.99608 | -82.88305 | 824 ft | 7 kts | 191° |
| 2026-05-09 00:19 | 39.99559 | -82.88317 | 824 ft | 7 kts | 191° |
| 2026-05-09 00:19 | 39.99501 | -82.88323 | 824 ft | 11 kts | 182° |
| 2026-05-09 00:19 | 39.99425 | -82.88319 | 824 ft | 13 kts | 155° |
| 2026-05-09 00:20 | 39.99388 | -82.88210 | 824 ft | 14 kts | 94° |
| 2026-05-09 00:20 | 39.99380 | -82.88061 | 824 ft | 17 kts | 94° |
| 2026-05-09 00:20 | 39.99372 | -82.87911 | 824 ft | 17 kts | 94° |
| 2026-05-09 00:20 | 39.99361 | -82.87729 | 824 ft | 21 kts | 94° |
| 2026-05-09 00:21 | 39.99351 | -82.87543 | 824 ft | 20 kts | 94° |
| 2026-05-09 00:21 | 39.99336 | -82.87365 | 821 ft | 20 kts | 114° |
| 2026-05-09 00:21 | 39.99253 | -82.87322 | 823 ft | 1 kts | 187° |
| 2026-05-09 00:21 | 39.99250 | -82.87323 | 823 ft | 0 kts | 187° |
| 2026-05-09 00:23 | 39.99248 | -82.87323 | 823 ft | 2 kts | 187° |
| 2026-05-09 00:23 | 39.99186 | -82.87333 | 821 ft | 14 kts | 192° |
| 2026-05-09 00:23 | 39.99168 | -82.87442 | 823 ft | 13 kts | 274° |
| 2026-05-09 00:24 | 39.99169 | -82.87460 | 823 ft | 0 kts | 274° |
| 2026-05-09 00:24 | 39.99180 | -82.87618 | 822 ft | 49 kts | 275° |
| 2026-05-09 00:24 | 39.99221 | -82.88365 | 824 ft | 114 kts | 274° |
| 2026-05-09 00:25 | 39.99296 | -82.89644 | 846 ft | 164 kts | 274° |
| 2026-05-09 00:25 | 39.99409 | -82.91136 | 1546 ft | 165 kts | 276° |
| 2026-05-09 00:25 | 39.99530 | -82.92652 | 2305 ft | 166 kts | 273° |
| 2026-05-09 00:25 | 39.99618 | -82.94184 | 2929 ft | 180 kts | 272° |
| 2026-05-09 00:26 | 39.99709 | -82.95934 | 3167 ft | 204 kts | 270° |
| 2026-05-09 00:26 | 39.99763 | -82.97876 | 3474 ft | 222 kts | 270° |
| 2026-05-09 00:26 | 39.99814 | -82.99946 | 3831 ft | 238 kts | 270° |
| 2026-05-09 00:26 | 39.99868 | -83.02148 | 4382 ft | 248 kts | 269° |
| 2026-05-09 00:27 | 39.99926 | -83.04380 | 5349 ft | 244 kts | 269° |
| 2026-05-09 00:27 | 39.99985 | -83.06603 | 6222 ft | 246 kts | 268° |
| 2026-05-09 00:27 | 40.00045 | -83.08855 | 7003 ft | 250 kts | 269° |
| 2026-05-09 00:27 | 40.00106 | -83.11125 | 7837 ft | 250 kts | 269° |
| 2026-05-09 00:28 | 40.00167 | -83.13391 | 8709 ft | 250 kts | 269° |
| 2026-05-09 00:28 | 40.00228 | -83.15659 | 9524 ft | 252 kts | 269° |
| 2026-05-09 00:28 | 40.00288 | -83.17945 | 10316 ft | 253 kts | 270° |
| 2026-05-09 00:28 | 40.00350 | -83.20324 | 10607 ft | 274 kts | 270° |
| 2026-05-09 00:29 | 40.00417 | -83.22907 | 10785 ft | 296 kts | 270° |
| 2026-05-09 00:29 | 40.00489 | -83.25687 | 10952 ft | 317 kts | 271° |
| 2026-05-09 00:29 | 40.00566 | -83.28648 | 11110 ft | 337 kts | 271° |
| 2026-05-09 00:29 | 40.00647 | -83.31758 | 11489 ft | 348 kts | 271° |
| 2026-05-09 00:30 | 40.00729 | -83.34933 | 12082 ft | 351 kts | 271° |
| 2026-05-09 00:30 | 40.00810 | -83.38123 | 12781 ft | 353 kts | 272° |
| 2026-05-09 00:30 | 40.00891 | -83.41328 | 13430 ft | 356 kts | 272° |
| 2026-05-09 00:30 | 40.00971 | -83.44571 | 14034 ft | 359 kts | 272° |
| 2026-05-09 00:31 | 40.01051 | -83.47837 | 14603 ft | 361 kts | 272° |
| 2026-05-09 00:31 | 40.01131 | -83.51117 | 15184 ft | 364 kts | 272° |
| 2026-05-09 00:31 | 40.01210 | -83.54426 | 15760 ft | 366 kts | 272° |
| 2026-05-09 00:31 | 40.01293 | -83.57758 | 16293 ft | 369 kts | 273° |
| 2026-05-09 00:32 | 40.01564 | -83.61094 | 16828 ft | 371 kts | 279° |
| 2026-05-09 00:32 | 40.01996 | -83.64422 | 17360 ft | 374 kts | 279° |
| 2026-05-09 00:32 | 40.02447 | -83.67787 | 17880 ft | 377 kts | 279° |
| 2026-05-09 00:32 | 40.02890 | -83.71168 | 18353 ft | 380 kts | 279° |
| 2026-05-09 00:33 | 40.03326 | -83.74581 | 18832 ft | 381 kts | 279° |
| 2026-05-09 00:33 | 40.03753 | -83.77997 | 19344 ft | 382 kts | 278° |
| 2026-05-09 00:33 | 40.04176 | -83.81416 | 19841 ft | 383 kts | 278° |
| 2026-05-09 00:33 | 40.04593 | -83.84813 | 20305 ft | 384 kts | 278° |
| 2026-05-09 00:34 | 40.04792 | -83.88284 | 20720 ft | 386 kts | 266° |
| 2026-05-09 00:34 | 40.04285 | -83.91738 | 21179 ft | 389 kts | 255° |
| 2026-05-09 00:34 | 40.03311 | -83.95039 | 21635 ft | 393 kts | 246° |
| 2026-05-09 00:34 | 40.01794 | -83.98051 | 22062 ft | 399 kts | 238° |
| 2026-05-09 00:35 | 40.00136 | -84.00960 | 22486 ft | 401 kts | 238° |
| 2026-05-09 00:35 | 39.98462 | -84.03873 | 22872 ft | 403 kts | 238° |
| 2026-05-09 00:35 | 39.96779 | -84.06803 | 23284 ft | 404 kts | 238° |
| 2026-05-09 00:35 | 39.95097 | -84.09746 | 23665 ft | 405 kts | 238° |
| 2026-05-09 00:36 | 39.93419 | -84.12694 | 23992 ft | 406 kts | 238° |
| 2026-05-09 00:36 | 39.91747 | -84.15640 | 24281 ft | 408 kts | 238° |
| 2026-05-09 00:36 | 39.90056 | -84.18625 | 24569 ft | 410 kts | 238° |
| 2026-05-09 00:36 | 39.88362 | -84.21616 | 24835 ft | 411 kts | 238° |
| 2026-05-09 00:37 | 39.86668 | -84.24607 | 25144 ft | 412 kts | 238° |
| 2026-05-09 00:37 | 39.84960 | -84.27618 | 25439 ft | 413 kts | 238° |
| 2026-05-09 00:37 | 39.83249 | -84.30635 | 25696 ft | 415 kts | 238° |
| 2026-05-09 00:37 | 39.81528 | -84.33666 | 25934 ft | 417 kts | 238° |
| 2026-05-09 00:38 | 39.79807 | -84.36692 | 26280 ft | 417 kts | 238° |
| 2026-05-09 00:38 | 39.78087 | -84.39713 | 26724 ft | 413 kts | 238° |
| 2026-05-09 00:38 | 39.76381 | -84.42705 | 27187 ft | 410 kts | 238° |
| 2026-05-09 00:38 | 39.74683 | -84.45680 | 27598 ft | 409 kts | 238° |
| 2026-05-09 00:39 | 39.72989 | -84.48647 | 27968 ft | 408 kts | 238° |
| 2026-05-09 00:39 | 39.71301 | -84.51603 | 28355 ft | 407 kts | 239° |
| 2026-05-09 00:39 | 39.69620 | -84.54543 | 28792 ft | 405 kts | 239° |
| 2026-05-09 00:39 | 39.67944 | -84.57471 | 29200 ft | 403 kts | 239° |
| 2026-05-09 00:40 | 39.66271 | -84.60393 | 29486 ft | 403 kts | 239° |
| 2026-05-09 00:40 | 39.64593 | -84.63321 | 29776 ft | 404 kts | 239° |
| 2026-05-09 00:40 | 39.62913 | -84.66251 | 29904 ft | 406 kts | 239° |
| 2026-05-09 00:41 | 39.57847 | -84.75061 | 29915 ft | 405 kts | 238° |
| 2026-05-09 00:41 | 39.54480 | -84.80903 | 29923 ft | 404 kts | 238° |
| 2026-05-09 00:42 | 39.51123 | -84.86718 | 29917 ft | 403 kts | 238° |
| 2026-05-09 00:42 | 39.47762 | -84.92530 | 29912 ft | 403 kts | 238° |
| 2026-05-09 00:43 | 39.44404 | -84.98325 | 29915 ft | 402 kts | 238° |
| 2026-05-09 00:43 | 39.41040 | -85.04121 | 29910 ft | 403 kts | 238° |
| 2026-05-09 00:44 | 39.37668 | -85.09920 | 29897 ft | 404 kts | 238° |
| 2026-05-09 00:44 | 39.34280 | -85.15735 | 29917 ft | 406 kts | 238° |
| 2026-05-09 00:45 | 39.30881 | -85.21559 | 29916 ft | 407 kts | 238° |
| 2026-05-09 00:45 | 39.27467 | -85.27397 | 29915 ft | 408 kts | 237° |
| 2026-05-09 00:46 | 39.24048 | -85.33233 | 29889 ft | 407 kts | 237° |
| 2026-05-09 00:46 | 39.20655 | -85.39014 | 29897 ft | 407 kts | 237° |
| 2026-05-09 00:47 | 39.17238 | -85.44827 | 29890 ft | 407 kts | 237° |
| 2026-05-09 00:47 | 39.13807 | -85.50653 | 29900 ft | 409 kts | 237° |
| 2026-05-09 00:48 | 39.10363 | -85.56491 | 29897 ft | 410 kts | 237° |
| 2026-05-09 00:48 | 39.06908 | -85.62337 | 29901 ft | 411 kts | 237° |
| 2026-05-09 00:49 | 39.03441 | -85.68192 | 29872 ft | 410 kts | 237° |
| 2026-05-09 00:49 | 39.00113 | -85.74090 | 29901 ft | 404 kts | 240° |
| 2026-05-09 00:50 | 38.97021 | -85.80105 | 29893 ft | 402 kts | 240° |
| 2026-05-09 00:50 | 38.93950 | -85.86094 | 29895 ft | 401 kts | 240° |
| 2026-05-09 00:51 | 38.90877 | -85.92057 | 29891 ft | 400 kts | 240° |
| 2026-05-09 00:51 | 38.87797 | -85.98007 | 29891 ft | 400 kts | 240° |
| 2026-05-09 00:52 | 38.84711 | -86.03952 | 29894 ft | 400 kts | 240° |
| 2026-05-09 00:52 | 38.81627 | -86.09881 | 29880 ft | 400 kts | 240° |
| 2026-05-09 00:53 | 38.78543 | -86.15800 | 29890 ft | 399 kts | 240° |
| 2026-05-09 00:53 | 38.76475 | -86.19763 | 29887 ft | 400 kts | 240° |